Current | Forecast
Updated: 9:00 AM MSK on May 01, 2017
Observed at Astrakhan, Kazakhstan
Temperature 75°F
Humidity 27%
Dew Point 39°F
Wind ESE at 18 mph
Pressure 30.09 in (Steady)
Conditions Clear
Visibility -
UV N/A
Clouds
Yesterday's Maximum 79°F
Yesterday's Minimum 57°F approx.
Yesterday's Cooling Degree Days 3 approx.
Sunrise6:31 AM +05
Sunset8:55 PM +05
Moon Rise10:55 AM +05
Moon Set1:22 AM +05
Moon PhaseMoon Phase
Waxing Crescent
Raw METARMETAR URWA 010600Z 12008MPS CAVOK 24/04 Q1019 R09/010070 NOSIG RMK QFE766/1022


Monday
. High: 75° F.
Tuesday
. High: 75° F.
Wednesday
. High: 64° F.
Thursday
. High: 68° F.
Friday
. High: 64° F.
Saturday
. High: 64° F.
Sunday
. High: 69° F.
Monday
. High: 71° F.

Units: English | Metric

Find the Weather for any City, State or Zipcode, or Country:

U.S. State List | Severe Weather | Tropical Storms | Ski Conditions
United States | Canada | Central America | South America | Asia | Europe | Australia | Africa | Islands

Weather Underground

© Copyright 2017
The Weather Company, LLC